createdAt,value
2022-08-03T00:01:38.421Z,100952.13
2022-08-03T00:04:06.882Z,100952.13
2022-08-03T00:06:37.106Z,100948.88
2022-08-03T00:09:07.974Z,100948.94
2022-08-03T00:11:35.488Z,100946.72
2022-08-03T00:14:03.287Z,100942.84
2022-08-03T00:16:30.627Z,100944.94
2022-08-03T00:18:57.885Z,100943.91
2022-08-03T00:21:28.454Z,100938.56
2022-08-03T00:23:55.640Z,100942.84
2022-08-03T00:26:22.767Z,100946.59
2022-08-03T00:28:50.949Z,100942.03
2022-08-03T00:31:24.236Z,100935.47
2022-08-03T00:34:05.984Z,100941.06
2022-08-03T00:36:34.100Z,100943.72
2022-08-03T00:39:01.580Z,100933.69
2022-08-03T00:41:28.633Z,100936.81
2022-08-03T00:43:55.662Z,100926.53
2022-08-03T00:46:22.983Z,100926.75
2022-08-03T00:48:50.803Z,100929.88
2022-08-03T00:51:19.241Z,100930.69
2022-08-03T00:53:46.458Z,100930.47
2022-08-03T00:56:15.568Z,100919.75
2022-08-03T00:58:45.423Z,100929.88
2022-08-03T01:01:13.034Z,100931.75
2022-08-03T01:03:41.068Z,100926.97
2022-08-03T01:06:18.378Z,100926.16
2022-08-03T01:08:57.543Z,100931.50
2022-08-03T01:11:59.809Z,100925.78
2022-08-03T01:14:39.550Z,100926.63
2022-08-03T01:17:22.771Z,100927.50
2022-08-03T01:19:49.819Z,100923.41
2022-08-03T01:22:53.959Z,100930.84
2022-08-03T01:25:57.981Z,100937.09
2022-08-03T01:29:09.226Z,100936.13
2022-08-03T01:32:53.251Z,100929.56
2022-08-03T01:34:40.557Z,100937.53
2022-08-03T01:37:10.408Z,100940.03
2022-08-03T01:39:39.929Z,100940.03
2022-08-03T01:42:10.623Z,100935.28
2022-08-03T01:44:40.643Z,100939.00
2022-08-03T01:47:08.864Z,100939.00
2022-08-03T01:49:45.611Z,100934.47
2022-08-03T01:52:14.974Z,100938.78
2022-08-03T01:54:45.023Z,100937.53
2022-08-03T01:57:13.573Z,100942.88
2022-08-03T01:59:42.531Z,100940.44
2022-08-03T02:02:32.813Z,100940.66
2022-08-03T02:05:03.739Z,100941.69
2022-08-03T02:07:32.768Z,100938.19
2022-08-03T02:10:04.152Z,100935.75
2022-08-03T02:12:37.981Z,100939.06
2022-08-03T02:15:10.030Z,100939.31
2022-08-03T02:17:40.311Z,100941.16
2022-08-03T02:20:11.965Z,100940.72
2022-08-03T02:22:43.522Z,100933.50
2022-08-03T02:25:13.074Z,100933.72
2022-08-03T02:27:44.375Z,100929.63
2022-08-03T02:30:13.657Z,100931.69
2022-08-03T02:32:42.980Z,100927.63
2022-08-03T02:35:18.028Z,100926.78
2022-08-03T02:37:49.928Z,100929.25
2022-08-03T02:40:19.511Z,100925.75
2022-08-03T02:42:50.200Z,100925.75
2022-08-03T02:45:20.644Z,100930.09
2022-08-03T02:47:53.994Z,100929.84
2022-08-03T02:50:23.603Z,100939.31
2022-08-03T02:52:52.555Z,100929.03
2022-08-03T02:55:22.843Z,100924.28
2022-08-03T02:57:51.422Z,100924.44
2022-08-03T03:00:27.110Z,100918.25
2022-08-03T03:02:58.726Z,100910.84
2022-08-03T03:05:54.740Z,100914.09
2022-08-03T03:08:28.849Z,100913.06
2022-08-03T03:10:59.948Z,100903.38
2022-08-03T03:13:29.286Z,100897.59
2022-08-03T03:16:00.773Z,100903.78
2022-08-03T03:18:35.235Z,100893.06
2022-08-03T03:21:03.854Z,100898.63
2022-08-03T03:23:32.353Z,100886.28
2022-08-03T03:26:02.501Z,100889.16
2022-08-03T03:28:30.798Z,100889.16
2022-08-03T03:30:58.847Z,100880.09
2022-08-03T03:33:28.238Z,100876.38
2022-08-03T03:35:56.465Z,100886.06
2022-08-03T03:38:23.440Z,100890.38
2022-08-03T03:40:50.502Z,100882.34
2022-08-03T03:43:19.001Z,100892.91
2022-08-03T03:45:47.720Z,100887.97
2022-08-03T03:48:15.275Z,100905.53
2022-08-03T03:50:44.205Z,100901.22
2022-08-03T03:53:12.202Z,100892.75
2022-08-03T03:55:58.900Z,100894.53
2022-08-03T03:58:27.396Z,100899.88
2022-08-03T04:00:54.425Z,100897.66
2022-08-03T04:03:21.373Z,100903.47
2022-08-03T04:06:07.311Z,100902.50
2022-08-03T04:08:52.949Z,100902.50
2022-08-03T04:11:58.807Z,100897.50
2022-08-03T04:14:35.605Z,100900.19
2022-08-03T04:17:05.992Z,100898.53
2022-08-03T04:19:45.443Z,100908.00
2022-08-03T04:22:15.431Z,100910.44
2022-08-03T04:24:49.864Z,100914.34
2022-08-03T04:27:21.231Z,100907.69
2022-08-03T04:29:52.224Z,100915.88
2022-08-03T04:32:20.810Z,100917.88
2022-08-03T04:34:48.098Z,100925.09
2022-08-03T04:37:38.098Z,100929.22
2022-08-03T04:40:09.627Z,100927.34
2022-08-03T04:42:39.448Z,100928.19
2022-08-03T04:45:08.515Z,100932.94
2022-08-03T04:47:36.592Z,100930.72
2022-08-03T04:50:09.144Z,100936.06
2022-08-03T04:52:39.758Z,100929.63
2022-08-03T04:55:07.222Z,100929.22
2022-08-03T04:57:34.130Z,100935.97
2022-08-03T05:00:03.628Z,100937.63
2022-08-03T05:02:32.168Z,100937.81
2022-08-03T05:05:00.110Z,100932.09
2022-08-03T05:07:35.508Z,100937.47
2022-08-03T05:10:15.147Z,100941.78
2022-08-03T05:12:55.780Z,100949.22
2022-08-03T05:15:22.795Z,100945.78
2022-08-03T05:17:49.674Z,100949.13
2022-08-03T05:20:16.684Z,100948.38
2022-08-03T05:22:52.603Z,100955.78
2022-08-03T05:25:22.245Z,100944.03
2022-08-03T05:27:51.315Z,100945.03
2022-08-03T05:30:29.722Z,100949.13
2022-08-03T05:33:00.326Z,100952.41
2022-08-03T05:36:01.319Z,100946.00
2022-08-03T05:38:24.162Z,100949.28
2022-08-03T05:41:22.066Z,100947.00
2022-08-03T05:43:45.094Z,100948.63
2022-08-03T05:46:13.166Z,100953.97
2022-08-03T05:48:40.684Z,100953.81
2022-08-03T05:51:07.925Z,100945.78
2022-08-03T05:53:35.439Z,100947.66
2022-08-03T05:56:13.211Z,100953.59
2022-08-03T05:58:47.194Z,100948.03
2022-08-03T06:01:15.703Z,100952.13
2022-08-03T06:03:42.832Z,100958.06
2022-08-03T06:06:09.911Z,100955.19
2022-08-03T06:08:36.984Z,100950.19
2022-08-03T06:11:04.376Z,100954.50
2022-08-03T06:13:31.444Z,100956.38
2022-08-03T06:15:58.501Z,100954.28
2022-08-03T06:18:25.438Z,100956.97
2022-08-03T06:20:53.090Z,100962.34
2022-08-03T06:23:20.560Z,100955.31
2022-08-03T06:25:47.884Z,100951.38
2022-08-03T06:28:42.623Z,100954.28
2022-08-03T06:31:02.761Z,100951.63
2022-08-03T06:33:48.450Z,100955.47
2022-08-03T06:36:16.775Z,100954.66
2022-08-03T06:38:43.639Z,100958.38
2022-08-03T06:41:10.504Z,100957.34
2022-08-03T06:44:02.503Z,100960.63
2022-08-03T06:46:24.679Z,100955.28
2022-08-03T06:48:53.524Z,100952.34
2022-08-03T06:51:20.420Z,100957.84
2022-08-03T06:53:47.254Z,100957.66
2022-08-03T06:56:14.087Z,100956.16
2022-08-03T06:58:41.004Z,100946.88
2022-08-03T07:01:07.863Z,100952.22
2022-08-03T07:03:34.685Z,100948.13
2022-08-03T07:06:02.537Z,100955.31
2022-08-03T07:08:33.698Z,100946.03
2022-08-03T07:11:01.398Z,100955.72
2022-08-03T07:13:28.217Z,100956.91
2022-08-03T07:15:56.310Z,100962.63
2022-08-03T07:18:29.406Z,100965.66
2022-08-03T07:20:57.054Z,100962.41
2022-08-03T07:23:24.041Z,100966.50
2022-08-03T07:25:51.096Z,100960.72
2022-08-03T07:28:18.293Z,100966.47
2022-08-03T07:30:45.220Z,100969.28
2022-08-03T07:33:12.076Z,100964.97
2022-08-03T07:35:39.439Z,100972.78
2022-08-03T07:38:06.240Z,100969.66
2022-08-03T07:40:33.082Z,100970.84
2022-08-03T07:43:00.342Z,100965.25
2022-08-03T07:45:27.193Z,100965.63
2022-08-03T07:47:54.649Z,100967.25
2022-08-03T07:50:22.659Z,100962.50
2022-08-03T07:52:54.270Z,100968.59
2022-08-03T07:55:23.284Z,100968.13
2022-08-03T07:58:23.984Z,100970.59
2022-08-03T08:00:53.316Z,100971.19
2022-08-03T08:03:22.054Z,100969.91
2022-08-03T08:05:49.600Z,100972.13
2022-08-03T08:08:16.442Z,100971.47
2022-08-03T08:10:58.279Z,100973.69
2022-08-03T08:13:25.686Z,100975.09
2022-08-03T08:15:52.460Z,100972.19
2022-08-03T08:18:19.293Z,100971.59
2022-08-03T08:20:46.387Z,100965.41
2022-08-03T08:23:40.834Z,100965.53
2022-08-03T08:25:59.935Z,100973.38
2022-08-03T08:28:30.237Z,100966.75
2022-08-03T08:31:00.511Z,100958.44
2022-08-03T08:33:37.335Z,100961.75
2022-08-03T08:36:15.594Z,100962.91
2022-08-03T08:38:44.736Z,100953.59
2022-08-03T08:41:13.106Z,100956.84
2022-08-03T08:43:40.101Z,100963.03
2022-08-03T08:46:08.679Z,100958.72
2022-08-03T08:48:40.822Z,100963.88
2022-08-03T08:51:09.829Z,100958.88
2022-08-03T08:53:38.583Z,100962.97
2022-08-03T08:56:07.529Z,100961.47
2022-08-03T08:58:38.645Z,100957.28
2022-08-03T09:01:06.199Z,100960.19
2022-08-03T09:03:34.537Z,100967.19
2022-08-03T09:06:02.477Z,100963.25
2022-08-03T09:08:30.891Z,100968.34
2022-08-03T09:10:58.435Z,100959.03
2022-08-03T09:13:25.526Z,100956.97
2022-08-03T09:16:12.327Z,100965.50
2022-08-03T09:18:39.886Z,100962.59
2022-08-03T09:21:31.259Z,100964.91
2022-08-03T09:24:02.790Z,100958.38
2022-08-03T09:26:31.792Z,100963.84
2022-08-03T09:29:07.121Z,100957.22
2022-08-03T09:31:44.184Z,100959.44
2022-08-03T09:34:13.919Z,100952.78
2022-08-03T09:36:51.713Z,100963.31
2022-08-03T09:39:37.481Z,100954.44
2022-08-03T09:42:09.772Z,100952.31
2022-08-03T09:44:39.066Z,100956.06
2022-08-03T09:47:06.668Z,100947.75
2022-08-03T09:49:33.623Z,100948.56
2022-08-03T09:52:38.179Z,100947.53
2022-08-03T09:55:08.036Z,100957.22
2022-08-03T09:58:10.799Z,100955.38
2022-08-03T10:01:24.154Z,100950.34
2022-08-03T10:04:03.803Z,100949.03
2022-08-03T10:06:31.611Z,100958.16
2022-08-03T10:09:16.309Z,100955.47
2022-08-03T10:11:44.761Z,100956.06
2022-08-03T10:14:19.612Z,100948.38
2022-08-03T10:16:47.940Z,100951.41
2022-08-03T10:19:15.830Z,100946.59
2022-08-03T10:21:49.718Z,100942.06
2022-08-03T10:24:21.302Z,100934.59
2022-08-03T10:26:50.374Z,100938.44
2022-08-03T10:29:25.395Z,100938.53
2022-08-03T10:31:58.156Z,100942.38
2022-08-03T10:34:29.383Z,100941.09
2022-08-03T10:37:00.311Z,100940.16
2022-08-03T10:39:30.923Z,100938.16
2022-08-03T10:41:59.935Z,100934.28
2022-08-03T10:44:36.441Z,100934.41
2022-08-03T10:47:05.163Z,100934.50
2022-08-03T10:49:34.596Z,100940.44
2022-08-03T10:52:13.331Z,100929.22
2022-08-03T10:55:10.878Z,100930.59
2022-08-03T10:57:58.860Z,100936.06
2022-08-03T11:00:28.656Z,100931.88
2022-08-03T11:03:03.367Z,100934.66
2022-08-03T11:05:35.992Z,100930.47
2022-08-03T11:08:35.061Z,100922.22
2022-08-03T11:11:17.264Z,100929.34
2022-08-03T11:14:08.271Z,100920.53
2022-08-03T11:16:37.390Z,100916.28
2022-08-03T11:19:07.829Z,100924.47
2022-08-03T11:21:52.890Z,100923.16
2022-08-03T11:24:39.408Z,100919.16
2022-08-03T11:27:15.771Z,100925.13
2022-08-03T11:29:57.692Z,100921.97
2022-08-03T11:33:00.281Z,100923.94
2022-08-03T11:35:33.823Z,100929.41
2022-08-03T11:38:04.817Z,100930.22
2022-08-03T11:40:48.590Z,100922.38
2022-08-03T11:43:31.281Z,100926.13
2022-08-03T11:46:13.851Z,100925.81
2022-08-03T11:49:09.499Z,100926.03
2022-08-03T11:51:38.932Z,100926.28
2022-08-03T11:54:07.021Z,100926.03
2022-08-03T11:56:48.839Z,100917.47
2022-08-03T11:59:21.875Z,100923.75
2022-08-03T12:01:50.099Z,100914.94
2022-08-03T12:04:16.918Z,100922.03
2022-08-03T12:06:59.464Z,100923.22
2022-08-03T12:09:26.269Z,100925.44
2022-08-03T12:11:58.438Z,100917.69
2022-08-03T12:14:48.519Z,100923.38
2022-08-03T12:17:16.745Z,100937.19
2022-08-03T12:19:44.127Z,100931.31
2022-08-03T12:22:10.919Z,100917.34
2022-08-03T12:24:42.892Z,100916.03
2022-08-03T12:27:09.755Z,100926.06
2022-08-03T12:29:37.599Z,100923.97
2022-08-03T12:32:04.728Z,100924.84
2022-08-03T12:34:50.619Z,100922.22
2022-08-03T12:37:23.866Z,100924.72
2022-08-03T12:40:02.698Z,100914.84
2022-08-03T12:42:37.801Z,100916.38
2022-08-03T12:45:25.235Z,100923.81
2022-08-03T12:48:02.150Z,100920.66
2022-08-03T12:50:34.831Z,100919.44
2022-08-03T12:53:08.016Z,100924.38
2022-08-03T12:55:57.154Z,100925.81
2022-08-03T12:58:35.243Z,100920.53
2022-08-03T13:01:09.457Z,100913.88
2022-08-03T13:03:50.031Z,100910.09
2022-08-03T13:06:22.564Z,100919.59
2022-08-03T13:08:51.519Z,100916.31
2022-08-03T13:11:23.526Z,100917.63
2022-08-03T13:14:16.744Z,100911.94
2022-08-03T13:16:46.849Z,100914.34
2022-08-03T13:19:15.900Z,100908.38
2022-08-03T13:21:53.739Z,100907.81
2022-08-03T13:24:31.467Z,100912.88
2022-08-03T13:26:59.473Z,100908.88
2022-08-03T13:29:26.361Z,100907.88
2022-08-03T13:31:53.269Z,100915.22
2022-08-03T13:34:23.470Z,100902.53
2022-08-03T13:37:11.398Z,100904.13
2022-08-03T13:39:58.130Z,100904.72
2022-08-03T13:42:28.076Z,100901.81
2022-08-03T13:44:56.050Z,100893.53
2022-08-03T13:47:23.120Z,100898.44
2022-08-03T13:49:59.803Z,100903.31
2022-08-03T13:52:33.123Z,100903.66
2022-08-03T13:55:01.054Z,100885.53
2022-08-03T13:58:03.233Z,100899.59
2022-08-03T14:00:28.141Z,100895.84
2022-08-03T14:03:13.683Z,100882.94
2022-08-03T14:05:41.998Z,100885.19
2022-08-03T14:08:09.284Z,100879.00
2022-08-03T14:10:38.338Z,100882.28
2022-08-03T14:13:05.928Z,100872.59
2022-08-03T14:15:37.599Z,100885.03
2022-08-03T14:18:06.928Z,100883.66
2022-08-03T14:20:38.649Z,100881.53
2022-08-03T14:23:14.385Z,100875.03
2022-08-03T14:25:49.918Z,100880.44
2022-08-03T14:28:18.607Z,100875.03
2022-08-03T14:30:45.914Z,100872.63
2022-08-03T14:33:12.716Z,100872.06
2022-08-03T14:35:39.765Z,100869.09
2022-08-03T14:38:06.740Z,100871.28
2022-08-03T14:40:33.759Z,100859.97
2022-08-03T14:43:04.223Z,100860.00
2022-08-03T14:45:31.319Z,100857.34
2022-08-03T14:50:27.867Z,100845.72
2022-08-03T14:50:51.504Z,100849.25
2022-08-03T14:53:19.834Z,100851.13
2022-08-03T14:55:50.520Z,100845.78
2022-08-03T14:58:22.712Z,100845.53
2022-08-03T15:00:51.314Z,100839.88
2022-08-03T15:03:25.907Z,100845.03
2022-08-03T15:05:53.881Z,100840.16
2022-08-03T15:08:21.660Z,100840.44
2022-08-03T15:10:49.525Z,100834.72
2022-08-03T15:13:17.141Z,100840.13
2022-08-03T15:15:44.071Z,100836.91
2022-08-03T15:18:11.371Z,100832.03
2022-08-03T15:20:46.999Z,100828.00
2022-08-03T15:23:15.960Z,100833.13
2022-08-03T15:26:29.395Z,100829.03
2022-08-03T15:28:31.188Z,100820.66
2022-08-03T15:30:58.042Z,100826.81
2022-08-03T15:33:25.603Z,100827.06
2022-08-03T15:35:53.351Z,100828.41
2022-08-03T15:38:26.265Z,100821.09
2022-08-03T15:40:59.206Z,100825.44
2022-08-03T15:43:26.261Z,100812.75
2022-08-03T15:48:41.045Z,100814.38
2022-08-03T15:51:08.512Z,100816.00
2022-08-03T15:53:35.857Z,100820.38
2022-08-03T15:56:10.660Z,100825.50
2022-08-03T15:59:04.552Z,100818.47
2022-08-03T16:01:28.042Z,100814.13
2022-08-03T16:03:55.335Z,100821.16
2022-08-03T16:06:34.634Z,100809.03
2022-08-03T16:09:03.358Z,100816.31
2022-08-03T16:11:30.741Z,100811.72
2022-08-03T16:14:12.963Z,100825.25
2022-08-03T16:16:44.385Z,100819.22
2022-08-03T16:19:11.317Z,100824.06
2022-08-03T16:21:40.310Z,100819.47
2022-08-03T16:24:17.558Z,100816.44
2022-08-03T16:26:54.909Z,100819.94
2022-08-03T16:29:22.675Z,100826.09
2022-08-03T16:31:50.850Z,100823.38
2022-08-03T16:34:18.423Z,100821.72
2022-08-03T16:36:45.991Z,100819.81
2022-08-03T16:39:12.947Z,100826.25
2022-08-03T16:42:00.642Z,100824.88
2022-08-03T16:44:27.520Z,100829.47
2022-08-03T16:46:55.274Z,100817.84
2022-08-03T16:49:54.806Z,100827.59
2022-08-03T16:52:09.163Z,100828.66
2022-08-03T16:54:39.751Z,100834.03
2022-08-03T16:57:07.558Z,100827.00
2022-08-03T16:59:36.377Z,100825.66
2022-08-03T17:02:12.696Z,100819.19
2022-08-03T17:04:40.192Z,100827.28
2022-08-03T17:07:08.855Z,100826.47
2022-08-03T17:09:38.632Z,100827.78
2022-08-03T17:12:07.217Z,100821.03
2022-08-03T17:14:34.066Z,100814.25
2022-08-03T17:17:03.948Z,100818.84
2022-08-03T17:19:32.625Z,100819.13
2022-08-03T17:22:09.241Z,100818.53
2022-08-03T17:24:42.257Z,100817.72
2022-08-03T17:28:41.969Z,100816.91
2022-08-03T17:30:08.466Z,100812.56
2022-08-03T17:32:42.244Z,100815.56
2022-08-03T17:35:10.366Z,100817.44
2022-08-03T17:37:57.405Z,100818.50
2022-08-03T17:40:24.678Z,100816.63
2022-08-03T17:42:55.485Z,100812.03
2022-08-03T17:45:22.414Z,100802.88
2022-08-03T17:47:57.068Z,100809.09
2022-08-03T17:50:33.458Z,100798.84
2022-08-03T17:53:07.682Z,100809.38
2022-08-03T17:55:57.092Z,100814.78
2022-08-03T17:58:53.819Z,100812.31
2022-08-03T18:02:08.935Z,100804.19
2022-08-03T18:04:55.478Z,100823.56
2022-08-03T18:07:41.243Z,100818.94
2022-08-03T18:10:11.470Z,100822.13
2022-08-03T18:13:19.314Z,100814.56
2022-08-03T18:15:59.374Z,100822.59
2022-08-03T18:18:38.643Z,100818.78
2022-08-03T18:21:09.346Z,100828.44
2022-08-03T18:23:45.003Z,100818.75
2022-08-03T18:26:17.084Z,100818.19
2022-08-03T18:28:45.141Z,100822.22
2022-08-03T18:31:33.148Z,100830.53
2022-08-03T18:34:16.432Z,100825.41
2022-08-03T18:36:52.728Z,100817.31
2022-08-03T18:39:22.962Z,100822.94
2022-08-03T18:41:49.756Z,100839.41
2022-08-03T18:44:37.622Z,100844.47
2022-08-03T18:47:27.977Z,100842.53
2022-08-03T18:50:31.018Z,100836.25
2022-08-03T18:54:02.910Z,100828.94
2022-08-03T18:56:20.762Z,100842.94
2022-08-03T19:02:00.004Z,100834.44
2022-08-03T19:04:34.128Z,100831.69
2022-08-03T19:07:11.103Z,100827.84
2022-08-03T19:09:48.431Z,100834.81
2022-08-03T19:12:33.832Z,100836.13
2022-08-03T19:15:12.505Z,100842.59
2022-08-03T19:20:35.119Z,100839.81
2022-08-03T19:23:02.116Z,100840.06
2022-08-03T19:25:35.349Z,100843.00
2022-08-03T19:28:05.850Z,100842.69
2022-08-03T19:30:40.225Z,100852.94
2022-08-03T19:33:11.031Z,100854.78
2022-08-03T19:35:55.129Z,100852.34
2022-08-03T19:38:29.254Z,100854.47
2022-08-03T19:41:04.213Z,100851.47
2022-08-03T19:43:53.933Z,100851.16
2022-08-03T19:46:30.833Z,100855.41
2022-08-03T19:49:14.999Z,100854.59
2022-08-03T19:51:58.561Z,100861.84
2022-08-03T19:54:53.149Z,100857.53
2022-08-03T19:57:27.523Z,100858.25
2022-08-03T19:59:56.234Z,100868.47
2022-08-03T20:02:26.695Z,100865.22
2022-08-03T20:04:57.670Z,100865.69
2022-08-03T20:07:27.421Z,100870.25
2022-08-03T20:09:56.676Z,100882.91
2022-08-03T20:12:52.572Z,100885.03
2022-08-03T20:15:31.229Z,100877.44
2022-08-03T20:17:59.485Z,100887.31
2022-08-03T20:20:33.985Z,100891.28
2022-08-03T20:23:06.822Z,100890.72
2022-08-03T20:25:48.847Z,100891.53
2022-08-03T20:28:29.257Z,100888.03
2022-08-03T20:30:56.747Z,100886.41
2022-08-03T20:33:27.919Z,100880.69
2022-08-03T20:36:10.585Z,100878.56
2022-08-03T20:38:43.746Z,100881.25
2022-08-03T20:41:14.481Z,100883.94
2022-08-03T20:43:42.039Z,100892.53
2022-08-03T20:46:32.056Z,100889.03
2022-08-03T20:48:58.998Z,100889.50
2022-08-03T20:51:49.793Z,100894.31
2022-08-03T20:54:20.891Z,100890.22
2022-08-03T20:56:58.123Z,100892.09
2022-08-03T20:59:30.470Z,100886.16
2022-08-03T21:02:00.440Z,100888.28
2022-08-03T21:04:28.846Z,100882.88
2022-08-03T21:07:02.694Z,100879.59
2022-08-03T21:09:53.113Z,100876.09
2022-08-03T21:12:53.361Z,100876.84
2022-08-03T21:13:00.963Z,100840.16
2022-08-03T21:13:11.012Z,100845.75
2022-08-03T21:16:03.196Z,100878.06
2022-08-03T21:18:28.153Z,100878.44
2022-08-03T21:20:57.059Z,100887.25
2022-08-03T21:23:39.744Z,100885.88
2022-08-03T21:26:13.166Z,100879.44
2022-08-03T21:28:40.352Z,100887.50
2022-08-03T21:31:08.105Z,100889.59
2022-08-03T21:33:35.941Z,100885.28
2022-08-03T21:36:02.840Z,100888.22
2022-08-03T21:38:30.862Z,100885.19
2022-08-03T21:40:57.660Z,100881.69
2022-08-03T21:43:24.806Z,100882.19
2022-08-03T21:46:05.863Z,100878.31
2022-08-03T21:48:41.128Z,100879.38
2022-08-03T21:51:09.625Z,100884.97
2022-08-03T21:54:02.475Z,100890.63
2022-08-03T21:56:28.120Z,100892.13
2022-08-03T21:59:00.070Z,100885.84
2022-08-03T22:01:28.663Z,100888.53
2022-08-03T22:04:05.582Z,100890.41
2022-08-03T22:06:34.770Z,100899.28
2022-08-03T22:09:01.766Z,100889.34
2022-08-03T22:11:28.709Z,100900.34
2022-08-03T22:13:55.499Z,100899.75
2022-08-03T22:16:22.338Z,100895.44
2022-08-03T22:18:49.286Z,100898.13
2022-08-03T22:21:17.181Z,100898.38
2022-08-03T22:23:58.627Z,100901.31
2022-08-03T22:26:34.720Z,100906.34
2022-08-03T22:29:06.844Z,100906.81
2022-08-03T22:31:58.044Z,100908.34
2022-08-03T22:34:26.521Z,100902.66
2022-08-03T22:36:57.311Z,100907.31
2022-08-03T22:39:29.068Z,100902.06
2022-08-03T22:41:59.164Z,100912.97
2022-08-03T22:44:27.446Z,100912.88
2022-08-03T22:46:55.624Z,100913.09
2022-08-03T22:49:22.926Z,100923.25
2022-08-03T22:51:52.299Z,100927.69
2022-08-03T22:54:19.239Z,100922.75
2022-08-03T22:56:50.657Z,100923.69
2022-08-03T22:59:40.633Z,100931.41
2022-08-03T23:02:20.420Z,100931.66
2022-08-03T23:04:55.113Z,100938.88
2022-08-03T23:07:30.082Z,100927.56
2022-08-03T23:09:58.061Z,100938.75
2022-08-03T23:12:25.638Z,100931.41
2022-08-03T23:14:56.138Z,100937.25
2022-08-03T23:17:24.445Z,100932.09
2022-08-03T23:19:53.797Z,100935.41
2022-08-03T23:22:30.033Z,100934.44
2022-08-03T23:24:59.153Z,100937.03
2022-08-03T23:27:28.007Z,100936.66
2022-08-03T23:29:57.701Z,100945.41
2022-08-03T23:32:29.814Z,100937.22
2022-08-03T23:35:18.368Z,100938.75
2022-08-03T23:38:04.257Z,100944.59
2022-08-03T23:40:34.082Z,100939.44
2022-08-03T23:43:02.969Z,100935.47
2022-08-03T23:45:34.830Z,100938.63
2022-08-03T23:48:01.655Z,100933.94
2022-08-03T23:50:35.139Z,100930.91
2022-08-03T23:53:23.616Z,100946.41
2022-08-03T23:56:10.267Z,100932.88
2022-08-03T23:59:06.980Z,100940.91
